Airfield :
LOGIN :

Register | Disclaimer

   EN    FR    IT 

 










Legend :    VFR   Marginal VFR   IFR   Intensive IFR   Very Intensive IFR
Visi :
Ceiling :
>= 8 km
>= 3000ft
5 to 8 km
1000 to 3000 ft
1500m to 5 km
500 to 1000 ft
800 to 1500m
200 to 500 ft
< 800m
< 200 ft
Symbols :   Thunderstorms  Fog  Heavy snow  Heavy precipitations  Wind > 20 kt
SIGMETs :     Misc.  Thunderstorms  Icing  Turbulence  Mountain Waves  Volcanic Ashes






- Airport Elevation : 84 ft


LFBC - Cazaux

CURRENT METAR :
  • 271800Z AUTO 20007KT 160V220 9999 // NSC 10/09 Q1011

EXPIRED METARs :
  • 271730Z AUTO 18008KT 9999 // NSC 11/09 Q1012
  • 271700Z AUTO 18010KT 9999 // NSC 11/10 Q1012
  • 271630Z AUTO 20010KT 9999 // NSC 11/09 Q1012
  • 271600Z AUTO 20013KT 9999 // FEW049 SCT064 OVC076 11/10 Q1012
  • 271530Z AUTO 23013KT 9999 // FEW046 SCT052 BKN064 11/10 Q1013

TAF TAF LFBC
Valid from the 27 at 15:00 until the 28 at 15:00 UTC


271400Z 2715/2815 23008KT 9999 FEW023 BKN060
TEMPO 2715/2721 23015G25KT 4000 RA
TEMPO 2721/2809 26015G30KT 4000 SHRA SCT020 BKN030TCU



MET'MAP, your aeronautical weather chart ! - Copyright ORBIFLY December 2007 - Disclaimer

ORBIFLY MET'MAP TEAM :

Programming & Development : Alexandra Zaïnal
Concept & original design : Baudouin d'Aumeries
Assistance for programming : Marc-Olivier Méhu
Technical & hardware support : Manuel Goepfert

Contact : metmap@orbifly.com




SOURCES & CREDITS :

   NOAA